Glenwood, MN

3:08 AM CDT on July 21, 2017 (GMT -0500)
Glenwood Municipal

Weather History for KGHW - January, 2014

Change the Weather History Date:

Wednesday, January 1, 2014

  Actual Average Record
Temperature  
Mean Temperature -6 °F -  
Max Temperature -2 °F 20 °F 43 °F (1964)
Min Temperature -9 °F 0 °F -32 °F (1974)
Degree Days  
Heating Degree Days 70    
Moisture  
Dew Point -15 °F    
Average Humidity 68    
Maximum Humidity 77    
Minimum Humidity 60    
Precipitation  
Precipitation 0.00 in - - ()
Sea Level Pressure  
Sea Level Pressure 30.38 in    
Wind  
Wind Speed 7 mph (NE)    
Max Wind Speed 12 mph    
Max Gust Speed -    
Visibility 10 miles    
Events      
Averages and records for this station are not official NWS values.
T = Trace of Precipitation, MM = Missing Value Source: NWS Daily Summary

Daily Weather History Graph

Daily Weather History Graph

Search for Another Location

Airport or City:

Trip Planner

Search our weather history database for the weather conditions in past years. The results will help you decide how hot, cold, wet, or windy it might be!

Date:

Astronomy

Jan. 01, 2014 Rise Set
Actual Time 8:01 AM CST 4:48 PM CST
Civil Twilight 7:27 AM CST 5:22 PM CST
Nautical Twilight 6:50 AM CST 5:59 PM CST
Astronomical Twilight 6:14 AM CST 6:35 PM CST
Moon 7:49 AM CST (1/1) 5:38 PM CST (1/1)
Length of Visible Light 9h 54m
Length of Day
8h 46m
New Moon, 0% of the Moon is Illuminated
Jan 1
New Moon
Jan 7
First Quarter
Jan 15
Full
Jan 23
Last Quarter
Jan 30
New

Hourly Weather History & Observations

Time (CST) Temp. Windchill Dew Point Humidity Pressure Visibility Wind Dir Wind Speed Gust Speed Precip Events Conditions
12:13 AM -9.4 °F -22.7 °F -16.6 °F 71% 30.35 in 10.0 mi ENE 5.8 mph - N/A   Overcast
12:33 AM -9.4 °F -25.6 °F -16.6 °F 71% 30.35 in 10.0 mi ENE 8.1 mph - N/A   Overcast
12:53 AM -9.4 °F -27.9 °F -16.6 °F 71% 30.34 in 10.0 mi ENE 10.4 mph - N/A   Overcast
1:13 AM -9.4 °F -26.8 °F -16.6 °F 71% 30.34 in 10.0 mi ENE 9.2 mph - N/A   Overcast
1:33 AM -9.4 °F -27.9 °F -16.6 °F 71% 30.34 in 10.0 mi NE 10.4 mph - N/A   Overcast
1:54 AM -9.4 °F -28.9 °F -16.6 °F 71% 30.34 in 10.0 mi NE 11.5 mph - N/A   Overcast
2:13 AM -9.4 °F -28.9 °F -16.6 °F 71% 30.34 in 10.0 mi NE 11.5 mph - N/A   Overcast
2:33 AM -9.4 °F -25.6 °F -16.6 °F 71% 30.34 in 10.0 mi ENE 8.1 mph - N/A   Overcast
2:53 AM -9.4 °F -25.6 °F -16.6 °F 71% 30.34 in 10.0 mi ENE 8.1 mph - N/A   Overcast
3:13 AM -9.4 °F -25.6 °F -16.6 °F 71% 30.34 in 10.0 mi ENE 8.1 mph - N/A   Overcast
3:33 AM -9.4 °F -25.6 °F -16.6 °F 71% 30.34 in 10.0 mi ENE 8.1 mph - N/A   Overcast
3:53 AM -9.4 °F -27.9 °F -16.6 °F 71% 30.34 in 10.0 mi NE 10.4 mph - N/A   Overcast
4:13 AM -9.4 °F -26.8 °F -16.6 °F 71% 30.34 in 10.0 mi ENE 9.2 mph - N/A   Overcast
4:33 AM -9.4 °F -25.6 °F -16.6 °F 71% 30.34 in 10.0 mi ENE 8.1 mph - N/A   Overcast
4:53 AM -9.4 °F -25.6 °F -16.6 °F 71% 30.34 in 10.0 mi ENE 8.1 mph - N/A   Overcast
5:13 AM -9.4 °F -25.6 °F -16.6 °F 71% 30.34 in 10.0 mi ENE 8.1 mph - N/A   Overcast
5:33 AM -9.4 °F -25.6 °F -16.6 °F 71% 30.35 in 10.0 mi ENE 8.1 mph - N/A   Overcast
5:53 AM -9.4 °F -24.3 °F -16.6 °F 71% 30.35 in 10.0 mi East 6.9 mph - N/A   Overcast
6:13 AM -9.4 °F -24.3 °F -16.6 °F 71% 30.36 in 10.0 mi ENE 6.9 mph - N/A   Overcast
6:33 AM -9.4 °F -24.3 °F -16.6 °F 71% 30.36 in 10.0 mi East 6.9 mph - N/A   Overcast
6:53 AM -9.4 °F -20.9 °F -16.6 °F 71% 30.37 in 10.0 mi ENE 4.6 mph - N/A   Overcast
7:13 AM -9.4 °F -22.7 °F -14.8 °F 77% 30.37 in 10.0 mi East 5.8 mph - N/A   Overcast
7:33 AM -9.4 °F -24.3 °F -16.6 °F 71% 30.38 in 10.0 mi ENE 6.9 mph - N/A   Overcast
7:53 AM -9.4 °F -24.3 °F -14.8 °F 77% 30.39 in 10.0 mi ENE 6.9 mph - N/A   Overcast
8:13 AM -9.4 °F -22.7 °F -16.6 °F 71% 30.40 in 10.0 mi East 5.8 mph - N/A   Overcast
8:34 AM -7.6 °F -20.6 °F -14.8 °F 71% 30.41 in 10.0 mi ENE 5.8 mph - N/A   Overcast
8:53 AM -7.6 °F -18.8 °F -16.6 °F 65% 30.42 in 10.0 mi ENE 4.6 mph - N/A   Overcast
9:13 AM -7.6 °F -20.6 °F -14.8 °F 71% 30.41 in 10.0 mi ENE 5.8 mph - N/A   Overcast
9:34 AM -7.6 °F -20.6 °F -14.8 °F 71% 30.42 in 10.0 mi NE 5.8 mph - N/A   Overcast
9:53 AM -7.6 °F -20.6 °F -14.8 °F 71% 30.43 in 10.0 mi NE 5.8 mph - N/A   Overcast
10:13 AM -7.6 °F -18.8 °F -14.8 °F 71% 30.42 in 10.0 mi NE 4.6 mph - N/A   Mostly Cloudy
10:34 AM -7.6 °F -20.6 °F -14.8 °F 71% 30.43 in 10.0 mi ENE 5.8 mph - N/A   Scattered Clouds
10:53 AM -7.6 °F -22.1 °F -14.8 °F 71% 30.43 in 10.0 mi NE 6.9 mph - N/A   Scattered Clouds
11:14 AM -5.8 °F -16.7 °F -14.8 °F 65% 30.42 in 10.0 mi NE 4.6 mph - N/A   Mostly Cloudy
11:33 AM -5.8 °F -16.7 °F -14.8 °F 65% 30.42 in 10.0 mi NE 4.6 mph - N/A   Mostly Cloudy
11:53 AM -5.8 °F -16.7 °F -14.8 °F 65% 30.41 in 10.0 mi NE 4.6 mph - N/A   Mostly Cloudy
12:14 PM -5.8 °F -18.4 °F -14.8 °F 65% 30.40 in 10.0 mi East 5.8 mph - N/A   Mostly Cloudy
12:33 PM -4.0 °F -14.6 °F -14.8 °F 60% 30.40 in 10.0 mi NE 4.6 mph - N/A   Mostly Cloudy
12:53 PM -4.0 °F -16.3 °F -14.8 °F 60% 30.39 in 10.0 mi NE 5.8 mph - N/A   Scattered Clouds
1:14 PM -4.0 °F -14.6 °F -14.8 °F 60% 30.39 in 10.0 mi NNE 4.6 mph - N/A   Scattered Clouds
1:33 PM -5.8 °F -14.5 °F -14.8 °F 65% 30.39 in 10.0 mi NNE 3.5 mph - N/A   Scattered Clouds
1:53 PM -4.0 °F -14.6 °F -14.8 °F 60% 30.38 in 10.0 mi North 4.6 mph - N/A   Scattered Clouds
2:14 PM -4.0 °F -16.3 °F -14.8 °F 60% 30.38 in 10.0 mi NNE 5.8 mph - N/A   Scattered Clouds
2:33 PM -4.0 °F -14.6 °F -14.8 °F 60% 30.38 in 10.0 mi NNE 4.6 mph - N/A   Scattered Clouds
2:54 PM -2.2 °F -12.5 °F -13.0 °F 60% 30.38 in 10.0 mi NE 4.6 mph - N/A   Mostly Cloudy
3:13 PM -4.0 °F -14.6 °F -14.8 °F 60% 30.38 in 10.0 mi NE 4.6 mph - N/A   Mostly Cloudy
3:33 PM -4.0 °F -14.6 °F -13.0 °F 65% 30.38 in 10.0 mi NE 4.6 mph - N/A   Mostly Cloudy
3:54 PM -4.0 °F -16.3 °F -14.8 °F 60% 30.39 in 10.0 mi NNE 5.8 mph - N/A   Mostly Cloudy
4:13 PM -4.0 °F -14.6 °F -13.0 °F 65% 30.39 in 10.0 mi NNE 4.6 mph - N/A   Mostly Cloudy
4:33 PM -4.0 °F -14.6 °F -13.0 °F 65% 30.39 in 10.0 mi NNE 4.6 mph - N/A   Overcast
4:54 PM -4.0 °F -17.8 °F -13.0 °F 65% 30.39 in 10.0 mi NNE 6.9 mph - N/A   Overcast
5:13 PM -4.0 °F -16.3 °F -13.0 °F 65% 30.40 in 10.0 mi NNE 5.8 mph - N/A   Overcast
5:33 PM -4.0 °F -16.3 °F -14.8 °F 60% 30.40 in 10.0 mi NNE 5.8 mph - N/A   Overcast
5:53 PM -4.0 °F -14.6 °F -13.0 °F 65% 30.41 in 10.0 mi NNE 4.6 mph - N/A   Overcast
6:13 PM -4.0 °F -14.6 °F -13.0 °F 65% 30.42 in 10.0 mi NNE 4.6 mph - N/A   Overcast
6:34 PM -4.0 °F -16.3 °F -13.0 °F 65% 30.41 in 10.0 mi NNE 5.8 mph - N/A   Overcast
6:53 PM -4.0 °F -16.3 °F -13.0 °F 65% 30.41 in 10.0 mi NNE 5.8 mph - N/A   Overcast
7:13 PM -4.0 °F -16.3 °F -13.0 °F 65% 30.42 in 10.0 mi NNE 5.8 mph - N/A   Overcast
7:34 PM -4.0 °F -14.6 °F -11.2 °F 71% 30.41 in 10.0 mi NNE 4.6 mph - N/A   Overcast
7:53 PM -4.0 °F -12.4 °F -11.2 °F 71% 30.41 in 10.0 mi NE 3.5 mph - N/A   Overcast
8:13 PM -4.0 °F -14.6 °F -13.0 °F 65% 30.40 in 10.0 mi NNE 4.6 mph - N/A   Overcast
8:34 PM -4.0 °F -12.4 °F -13.0 °F 65% 30.41 in 10.0 mi NNE 3.5 mph - N/A   Overcast
8:53 PM -4.0 °F -12.4 °F -11.2 °F 71% 30.40 in 10.0 mi NNE 3.5 mph - N/A   Overcast
9:13 PM -4.0 °F -14.6 °F -11.2 °F 71% 30.39 in 10.0 mi NE 4.6 mph - N/A   Overcast
9:34 PM -4.0 °F - -11.2 °F 71% 30.40 in 10.0 mi Calm Calm - N/A   Overcast
9:53 PM -5.8 °F -14.5 °F -11.2 °F 77% 30.39 in 10.0 mi North 3.5 mph - N/A   Overcast
10:13 PM -5.8 °F -14.5 °F -13.0 °F 71% 30.39 in 10.0 mi North 3.5 mph - N/A   Overcast
10:33 PM -5.8 °F -16.7 °F -13.0 °F 71% 30.39 in 10.0 mi NNE 4.6 mph - N/A   Overcast
10:53 PM -5.8 °F -14.5 °F -14.8 °F 65% 30.40 in 10.0 mi NNE 3.5 mph - N/A   Overcast
11:14 PM -5.8 °F -16.7 °F -13.0 °F 71% 30.40 in 10.0 mi North 4.6 mph - N/A   Overcast
11:33 PM -5.8 °F -16.7 °F -13.0 °F 71% 30.39 in 10.0 mi NNE 4.6 mph - N/A   Overcast
11:53 PM -5.8 °F -14.5 °F -11.2 °F 77% 30.39 in 10.0 mi NNE 3.5 mph - N/A   Overcast